sensor_id;sensor_type;location;lat;lon;timestamp;P1;durP1;ratioP1;P2;durP2;ratioP2
4638;SDS011;2332;38.646;-9.154;2023-06-04T00:01:57;13.40;;;11.13;;
4638;SDS011;2332;38.646;-9.154;2023-06-04T00:04:24;15.03;;;12.03;;
4638;SDS011;2332;38.646;-9.154;2023-06-04T00:06:50;15.17;;;10.87;;
4638;SDS011;2332;38.646;-9.154;2023-06-04T00:09:15;12.23;;;10.70;;
4638;SDS011;2332;38.646;-9.154;2023-06-04T00:11:41;19.43;;;11.70;;
4638;SDS011;2332;38.646;-9.154;2023-06-04T00:14:06;11.40;;;10.20;;
4638;SDS011;2332;38.646;-9.154;2023-06-04T00:16:32;18.20;;;10.63;;
4638;SDS011;2332;38.646;-9.154;2023-06-04T00:19:00;23.53;;;12.47;;
4638;SDS011;2332;38.646;-9.154;2023-06-04T00:21:25;13.53;;;10.47;;
4638;SDS011;2332;38.646;-9.154;2023-06-04T00:23:51;17.50;;;9.97;;
4638;SDS011;2332;38.646;-9.154;2023-06-04T00:26:16;13.60;;;10.13;;
4638;SDS011;2332;38.646;-9.154;2023-06-04T00:28:41;16.33;;;11.70;;
4638;SDS011;2332;38.646;-9.154;2023-06-04T00:31:07;15.37;;;9.47;;
4638;SDS011;2332;38.646;-9.154;2023-06-04T00:33:32;17.80;;;12.53;;
4638;SDS011;2332;38.646;-9.154;2023-06-04T00:35:58;14.10;;;11.27;;
4638;SDS011;2332;38.646;-9.154;2023-06-04T00:38:23;12.60;;;11.30;;
4638;SDS011;2332;38.646;-9.154;2023-06-04T00:41:01;15.60;;;11.87;;
4638;SDS011;2332;38.646;-9.154;2023-06-04T00:43:26;14.20;;;11.20;;
4638;SDS011;2332;38.646;-9.154;2023-06-04T00:45:52;18.80;;;11.43;;
4638;SDS011;2332;38.646;-9.154;2023-06-04T00:48:18;16.27;;;12.17;;
4638;SDS011;2332;38.646;-9.154;2023-06-04T00:50:44;14.67;;;11.30;;
4638;SDS011;2332;38.646;-9.154;2023-06-04T00:53:09;17.97;;;11.03;;
4638;SDS011;2332;38.646;-9.154;2023-06-04T00:55:35;18.80;;;11.77;;
4638;SDS011;2332;38.646;-9.154;2023-06-04T00:58:01;19.00;;;11.33;;
4638;SDS011;2332;38.646;-9.154;2023-06-04T01:00:27;20.17;;;10.77;;
4638;SDS011;2332;38.646;-9.154;2023-06-04T01:02:53;15.93;;;10.90;;
4638;SDS011;2332;38.646;-9.154;2023-06-04T01:05:29;16.63;;;11.23;;
4638;SDS011;2332;38.646;-9.154;2023-06-04T01:07:57;12.93;;;11.53;;
4638;SDS011;2332;38.646;-9.154;2023-06-04T01:10:23;16.67;;;12.30;;
4638;SDS011;2332;38.646;-9.154;2023-06-04T01:12:48;16.83;;;12.10;;
4638;SDS011;2332;38.646;-9.154;2023-06-04T01:15:13;16.63;;;11.50;;
4638;SDS011;2332;38.646;-9.154;2023-06-04T01:27:51;19.93;;;12.10;;
4638;SDS011;2332;38.646;-9.154;2023-06-04T01:30:19;19.03;;;12.40;;
4638;SDS011;2332;38.646;-9.154;2023-06-04T01:32:45;21.40;;;12.53;;
4638;SDS011;2332;38.646;-9.154;2023-06-04T01:35:11;18.77;;;12.30;;
4638;SDS011;2332;38.646;-9.154;2023-06-04T01:37:37;21.20;;;12.67;;
4638;SDS011;2332;38.646;-9.154;2023-06-04T01:40:05;20.20;;;13.30;;
4638;SDS011;2332;38.646;-9.154;2023-06-04T01:42:34;15.07;;;11.17;;
4638;SDS011;2332;38.646;-9.154;2023-06-04T01:45:00;18.23;;;12.40;;
4638;SDS011;2332;38.646;-9.154;2023-06-04T01:47:25;18.87;;;12.33;;
4638;SDS011;2332;38.646;-9.154;2023-06-04T01:49:50;17.43;;;13.30;;
4638;SDS011;2332;38.646;-9.154;2023-06-04T01:52:16;17.90;;;13.07;;
4638;SDS011;2332;38.646;-9.154;2023-06-04T01:54:41;19.60;;;13.10;;
4638;SDS011;2332;38.646;-9.154;2023-06-04T01:57:08;20.70;;;14.20;;
4638;SDS011;2332;38.646;-9.154;2023-06-04T01:59:35;22.73;;;14.17;;
4638;SDS011;2332;38.646;-9.154;2023-06-04T02:02:01;20.63;;;15.37;;
4638;SDS011;2332;38.646;-9.154;2023-06-04T02:04:27;26.63;;;15.40;;
4638;SDS011;2332;38.646;-9.154;2023-06-04T02:06:52;24.47;;;15.73;;
4638;SDS011;2332;38.646;-9.154;2023-06-04T02:09:18;23.50;;;17.60;;
4638;SDS011;2332;38.646;-9.154;2023-06-04T02:11:43;25.70;;;16.80;;
4638;SDS011;2332;38.646;-9.154;2023-06-04T02:14:09;22.60;;;16.63;;
4638;SDS011;2332;38.646;-9.154;2023-06-04T02:16:34;25.30;;;17.27;;
4638;SDS011;2332;38.646;-9.154;2023-06-04T02:18:59;32.93;;;17.40;;
4638;SDS011;2332;38.646;-9.154;2023-06-04T02:21:25;27.77;;;17.63;;
4638;SDS011;2332;38.646;-9.154;2023-06-04T02:23:51;25.40;;;16.97;;
4638;SDS011;2332;38.646;-9.154;2023-06-04T02:26:16;28.00;;;16.90;;
4638;SDS011;2332;38.646;-9.154;2023-06-04T02:28:42;27.00;;;17.07;;
4638;SDS011;2332;38.646;-9.154;2023-06-04T02:31:07;26.30;;;16.90;;
4638;SDS011;2332;38.646;-9.154;2023-06-04T02:33:33;25.53;;;16.47;;
4638;SDS011;2332;38.646;-9.154;2023-06-04T02:35:58;22.33;;;16.60;;
4638;SDS011;2332;38.646;-9.154;2023-06-04T02:38:23;31.33;;;16.73;;
4638;SDS011;2332;38.646;-9.154;2023-06-04T02:40:49;23.53;;;17.40;;
4638;SDS011;2332;38.646;-9.154;2023-06-04T02:43:15;31.00;;;17.73;;
4638;SDS011;2332;38.646;-9.154;2023-06-04T02:45:40;26.60;;;16.47;;
4638;SDS011;2332;38.646;-9.154;2023-06-04T02:48:05;27.67;;;17.27;;
4638;SDS011;2332;38.646;-9.154;2023-06-04T02:50:31;28.90;;;17.70;;
4638;SDS011;2332;38.646;-9.154;2023-06-04T02:52:56;33.87;;;18.37;;
4638;SDS011;2332;38.646;-9.154;2023-06-04T02:55:22;24.03;;;16.90;;
4638;SDS011;2332;38.646;-9.154;2023-06-04T02:57:47;24.00;;;16.83;;
4638;SDS011;2332;38.646;-9.154;2023-06-04T03:00:13;33.83;;;18.17;;
4638;SDS011;2332;38.646;-9.154;2023-06-04T03:02:42;26.00;;;17.80;;
4638;SDS011;2332;38.646;-9.154;2023-06-04T03:05:09;29.77;;;17.80;;
4638;SDS011;2332;38.646;-9.154;2023-06-04T03:07:36;29.20;;;19.23;;
4638;SDS011;2332;38.646;-9.154;2023-06-04T03:10:01;24.60;;;18.17;;
4638;SDS011;2332;38.646;-9.154;2023-06-04T03:12:27;28.90;;;19.17;;
4638;SDS011;2332;38.646;-9.154;2023-06-04T03:14:52;28.60;;;18.67;;
4638;SDS011;2332;38.646;-9.154;2023-06-04T03:17:17;29.93;;;19.93;;
4638;SDS011;2332;38.646;-9.154;2023-06-04T03:19:43;27.40;;;19.83;;
4638;SDS011;2332;38.646;-9.154;2023-06-04T03:22:08;30.90;;;19.30;;
4638;SDS011;2332;38.646;-9.154;2023-06-04T03:24:35;29.57;;;20.53;;
4638;SDS011;2332;38.646;-9.154;2023-06-04T03:27:01;29.63;;;19.53;;
4638;SDS011;2332;38.646;-9.154;2023-06-04T03:29:27;27.83;;;21.27;;
4638;SDS011;2332;38.646;-9.154;2023-06-04T03:31:52;28.00;;;20.40;;
4638;SDS011;2332;38.646;-9.154;2023-06-04T03:34:18;32.57;;;22.93;;
4638;SDS011;2332;38.646;-9.154;2023-06-04T03:36:43;30.40;;;21.57;;
4638;SDS011;2332;38.646;-9.154;2023-06-04T03:39:08;30.50;;;22.70;;
4638;SDS011;2332;38.646;-9.154;2023-06-04T03:41:34;31.00;;;21.43;;
4638;SDS011;2332;38.646;-9.154;2023-06-04T03:43:59;34.73;;;22.23;;
4638;SDS011;2332;38.646;-9.154;2023-06-04T03:46:24;30.37;;;20.40;;
4638;SDS011;2332;38.646;-9.154;2023-06-04T03:48:51;29.07;;;20.70;;
4638;SDS011;2332;38.646;-9.154;2023-06-04T03:51:17;32.00;;;20.53;;
4638;SDS011;2332;38.646;-9.154;2023-06-04T03:53:42;36.43;;;21.20;;
4638;SDS011;2332;38.646;-9.154;2023-06-04T03:56:08;30.40;;;20.13;;
4638;SDS011;2332;38.646;-9.154;2023-06-04T03:58:34;32.47;;;20.63;;
4638;SDS011;2332;38.646;-9.154;2023-06-04T04:01:00;29.33;;;20.77;;
4638;SDS011;2332;38.646;-9.154;2023-06-04T04:03:26;32.30;;;20.67;;
4638;SDS011;2332;38.646;-9.154;2023-06-04T04:05:55;28.20;;;19.47;;
4638;SDS011;2332;38.646;-9.154;2023-06-04T04:08:21;26.60;;;20.53;;
4638;SDS011;2332;38.646;-9.154;2023-06-04T04:10:47;29.67;;;20.10;;
4638;SDS011;2332;38.646;-9.154;2023-06-04T04:13:12;33.23;;;21.50;;
4638;SDS011;2332;38.646;-9.154;2023-06-04T04:15:38;36.63;;;20.80;;
4638;SDS011;2332;38.646;-9.154;2023-06-04T04:18:03;27.93;;;20.33;;
4638;SDS011;2332;38.646;-9.154;2023-06-04T04:20:28;32.80;;;21.00;;
4638;SDS011;2332;38.646;-9.154;2023-06-04T04:22:54;24.20;;;19.17;;
4638;SDS011;2332;38.646;-9.154;2023-06-04T04:25:20;29.93;;;19.77;;
4638;SDS011;2332;38.646;-9.154;2023-06-04T04:27:45;25.40;;;18.90;;
4638;SDS011;2332;38.646;-9.154;2023-06-04T04:30:13;30.27;;;20.40;;
4638;SDS011;2332;38.646;-9.154;2023-06-04T04:32:40;25.63;;;18.03;;
4638;SDS011;2332;38.646;-9.154;2023-06-04T04:35:11;23.20;;;15.73;;
4638;SDS011;2332;38.646;-9.154;2023-06-04T04:37:37;31.70;;;16.73;;
4638;SDS011;2332;38.646;-9.154;2023-06-04T04:40:06;22.97;;;14.90;;
4638;SDS011;2332;38.646;-9.154;2023-06-04T04:42:34;27.67;;;14.47;;
4638;SDS011;2332;38.646;-9.154;2023-06-04T04:45:00;24.53;;;15.27;;
4638;SDS011;2332;38.646;-9.154;2023-06-04T04:47:25;24.50;;;15.90;;
4638;SDS011;2332;38.646;-9.154;2023-06-04T04:49:50;26.40;;;16.10;;
4638;SDS011;2332;38.646;-9.154;2023-06-04T04:52:16;17.33;;;13.53;;
4638;SDS011;2332;38.646;-9.154;2023-06-04T04:54:41;19.93;;;14.23;;
4638;SDS011;2332;38.646;-9.154;2023-06-04T04:57:07;18.00;;;12.80;;
4638;SDS011;2332;38.646;-9.154;2023-06-04T04:59:33;20.07;;;14.53;;
4638;SDS011;2332;38.646;-9.154;2023-06-04T05:01:58;18.77;;;13.83;;
4638;SDS011;2332;38.646;-9.154;2023-06-04T05:04:23;21.13;;;13.97;;
4638;SDS011;2332;38.646;-9.154;2023-06-04T05:06:49;23.13;;;13.60;;
4638;SDS011;2332;38.646;-9.154;2023-06-04T05:09:14;19.40;;;13.10;;
4638;SDS011;2332;38.646;-9.154;2023-06-04T05:11:40;18.73;;;12.90;;
4638;SDS011;2332;38.646;-9.154;2023-06-04T05:14:06;17.33;;;12.00;;
4638;SDS011;2332;38.646;-9.154;2023-06-04T05:16:32;21.63;;;12.67;;
4638;SDS011;2332;38.646;-9.154;2023-06-04T05:19:00;21.03;;;12.33;;
4638;SDS011;2332;38.646;-9.154;2023-06-04T05:21:27;20.00;;;12.00;;
4638;SDS011;2332;38.646;-9.154;2023-06-04T05:23:54;19.17;;;13.30;;
4638;SDS011;2332;38.646;-9.154;2023-06-04T05:26:19;15.83;;;11.37;;
4638;SDS011;2332;38.646;-9.154;2023-06-04T05:28:48;21.23;;;12.23;;
4638;SDS011;2332;38.646;-9.154;2023-06-04T05:31:13;17.13;;;12.90;;
4638;SDS011;2332;38.646;-9.154;2023-06-04T05:33:40;16.57;;;11.70;;
4638;SDS011;2332;38.646;-9.154;2023-06-04T05:36:06;19.70;;;12.03;;
4638;SDS011;2332;38.646;-9.154;2023-06-04T05:38:31;14.00;;;10.87;;
4638;SDS011;2332;38.646;-9.154;2023-06-04T05:40:56;14.10;;;11.10;;
4638;SDS011;2332;38.646;-9.154;2023-06-04T05:43:22;17.37;;;11.87;;
4638;SDS011;2332;38.646;-9.154;2023-06-04T05:45:52;15.30;;;11.07;;
4638;SDS011;2332;38.646;-9.154;2023-06-04T05:48:18;14.10;;;10.50;;
4638;SDS011;2332;38.646;-9.154;2023-06-04T05:50:43;17.47;;;10.70;;
4638;SDS011;2332;38.646;-9.154;2023-06-04T05:53:12;14.67;;;10.53;;
4638;SDS011;2332;38.646;-9.154;2023-06-04T05:55:37;16.63;;;11.33;;
4638;SDS011;2332;38.646;-9.154;2023-06-04T05:58:03;14.67;;;10.47;;
4638;SDS011;2332;38.646;-9.154;2023-06-04T06:00:28;15.80;;;9.67;;
4638;SDS011;2332;38.646;-9.154;2023-06-04T06:03:00;15.80;;;10.47;;
4638;SDS011;2332;38.646;-9.154;2023-06-04T06:05:26;10.67;;;9.43;;
4638;SDS011;2332;38.646;-9.154;2023-06-04T06:07:51;12.83;;;10.30;;
4638;SDS011;2332;38.646;-9.154;2023-06-04T06:10:17;14.60;;;8.47;;
4638;SDS011;2332;38.646;-9.154;2023-06-04T06:12:42;9.10;;;8.00;;
4638;SDS011;2332;38.646;-9.154;2023-06-04T06:15:08;10.00;;;8.70;;
4638;SDS011;2332;38.646;-9.154;2023-06-04T06:17:33;11.63;;;8.90;;
4638;SDS011;2332;38.646;-9.154;2023-06-04T06:20:00;12.20;;;9.10;;
4638;SDS011;2332;38.646;-9.154;2023-06-04T06:22:26;16.60;;;9.80;;
4638;SDS011;2332;38.646;-9.154;2023-06-04T06:24:52;10.93;;;8.93;;
4638;SDS011;2332;38.646;-9.154;2023-06-04T06:27:17;12.13;;;9.00;;
4638;SDS011;2332;38.646;-9.154;2023-06-04T06:29:43;12.60;;;8.47;;
4638;SDS011;2332;38.646;-9.154;2023-06-04T06:32:12;15.60;;;9.20;;
4638;SDS011;2332;38.646;-9.154;2023-06-04T06:34:37;11.73;;;8.60;;
4638;SDS011;2332;38.646;-9.154;2023-06-04T06:37:03;10.60;;;8.13;;
4638;SDS011;2332;38.646;-9.154;2023-06-04T06:39:28;10.50;;;8.43;;
4638;SDS011;2332;38.646;-9.154;2023-06-04T06:41:54;9.50;;;8.50;;
4638;SDS011;2332;38.646;-9.154;2023-06-04T06:44:19;10.57;;;8.20;;
4638;SDS011;2332;38.646;-9.154;2023-06-04T06:46:45;9.23;;;8.33;;
4638;SDS011;2332;38.646;-9.154;2023-06-04T06:49:10;8.80;;;7.80;;
4638;SDS011;2332;38.646;-9.154;2023-06-04T06:51:35;11.40;;;8.33;;
4638;SDS011;2332;38.646;-9.154;2023-06-04T06:54:01;9.60;;;7.97;;
4638;SDS011;2332;38.646;-9.154;2023-06-04T06:56:26;11.00;;;7.90;;
4638;SDS011;2332;38.646;-9.154;2023-06-04T06:58:52;10.77;;;8.20;;
4638;SDS011;2332;38.646;-9.154;2023-06-04T07:01:17;9.20;;;7.37;;
4638;SDS011;2332;38.646;-9.154;2023-06-04T07:03:42;10.70;;;7.87;;
4638;SDS011;2332;38.646;-9.154;2023-06-04T07:06:08;8.63;;;7.70;;
4638;SDS011;2332;38.646;-9.154;2023-06-04T07:08:33;7.73;;;6.93;;
4638;SDS011;2332;38.646;-9.154;2023-06-04T07:11:00;14.63;;;8.57;;
4638;SDS011;2332;38.646;-9.154;2023-06-04T07:13:27;8.03;;;7.20;;
4638;SDS011;2332;38.646;-9.154;2023-06-04T07:15:53;12.07;;;7.90;;
4638;SDS011;2332;38.646;-9.154;2023-06-04T07:18:18;7.80;;;6.57;;
4638;SDS011;2332;38.646;-9.154;2023-06-04T07:20:43;14.60;;;7.57;;
4638;SDS011;2332;38.646;-9.154;2023-06-04T07:23:09;10.03;;;7.20;;
4638;SDS011;2332;38.646;-9.154;2023-06-04T07:25:35;10.53;;;6.93;;
4638;SDS011;2332;38.646;-9.154;2023-06-04T07:28:00;9.43;;;7.60;;
4638;SDS011;2332;38.646;-9.154;2023-06-04T07:30:29;14.40;;;8.67;;
4638;SDS011;2332;38.646;-9.154;2023-06-04T07:32:54;12.93;;;7.37;;
4638;SDS011;2332;38.646;-9.154;2023-06-04T07:35:20;8.43;;;7.53;;
4638;SDS011;2332;38.646;-9.154;2023-06-04T07:37:45;10.13;;;8.70;;
4638;SDS011;2332;38.646;-9.154;2023-06-04T07:40:13;13.90;;;8.27;;
4638;SDS011;2332;38.646;-9.154;2023-06-04T07:42:39;7.93;;;7.13;;
4638;SDS011;2332;38.646;-9.154;2023-06-04T07:45:05;61.83;;;10.40;;
4638;SDS011;2332;38.646;-9.154;2023-06-04T07:47:31;9.90;;;7.60;;
4638;SDS011;2332;38.646;-9.154;2023-06-04T07:49:56;8.07;;;7.23;;
4638;SDS011;2332;38.646;-9.154;2023-06-04T07:52:21;10.37;;;7.53;;
4638;SDS011;2332;38.646;-9.154;2023-06-04T07:54:47;12.37;;;8.30;;
4638;SDS011;2332;38.646;-9.154;2023-06-04T07:57:12;8.37;;;7.03;;
4638;SDS011;2332;38.646;-9.154;2023-06-04T07:59:37;9.40;;;7.73;;
4638;SDS011;2332;38.646;-9.154;2023-06-04T08:02:03;8.83;;;7.63;;
4638;SDS011;2332;38.646;-9.154;2023-06-04T08:04:28;10.80;;;7.73;;
4638;SDS011;2332;38.646;-9.154;2023-06-04T08:06:54;10.23;;;8.47;;
4638;SDS011;2332;38.646;-9.154;2023-06-04T08:09:20;9.47;;;8.43;;
4638;SDS011;2332;38.646;-9.154;2023-06-04T08:11:45;10.30;;;8.10;;
4638;SDS011;2332;38.646;-9.154;2023-06-04T08:14:11;12.30;;;8.27;;
4638;SDS011;2332;38.646;-9.154;2023-06-04T08:16:38;9.33;;;7.10;;
4638;SDS011;2332;38.646;-9.154;2023-06-04T08:19:03;14.30;;;8.17;;
4638;SDS011;2332;38.646;-9.154;2023-06-04T08:21:28;14.67;;;9.37;;
4638;SDS011;2332;38.646;-9.154;2023-06-04T08:23:54;12.13;;;8.77;;
4638;SDS011;2332;38.646;-9.154;2023-06-04T08:26:20;9.90;;;8.60;;
4638;SDS011;2332;38.646;-9.154;2023-06-04T08:28:48;11.07;;;7.70;;
4638;SDS011;2332;38.646;-9.154;2023-06-04T08:31:14;10.00;;;8.33;;
4638;SDS011;2332;38.646;-9.154;2023-06-04T08:33:40;12.07;;;8.50;;
4638;SDS011;2332;38.646;-9.154;2023-06-04T08:36:05;9.53;;;8.33;;
4638;SDS011;2332;38.646;-9.154;2023-06-04T08:38:31;10.17;;;8.13;;
4638;SDS011;2332;38.646;-9.154;2023-06-04T08:40:58;12.03;;;9.00;;
4638;SDS011;2332;38.646;-9.154;2023-06-04T08:43:26;15.07;;;9.00;;
4638;SDS011;2332;38.646;-9.154;2023-06-04T08:45:52;11.73;;;7.37;;
4638;SDS011;2332;38.646;-9.154;2023-06-04T08:48:23;12.37;;;8.00;;
4638;SDS011;2332;38.646;-9.154;2023-06-04T08:50:50;12.17;;;8.33;;
4638;SDS011;2332;38.646;-9.154;2023-06-04T08:53:16;9.07;;;8.17;;
4638;SDS011;2332;38.646;-9.154;2023-06-04T08:55:41;11.00;;;8.70;;
4638;SDS011;2332;38.646;-9.154;2023-06-04T08:58:07;10.83;;;8.27;;
4638;SDS011;2332;38.646;-9.154;2023-06-04T09:00:35;9.10;;;7.83;;
4638;SDS011;2332;38.646;-9.154;2023-06-04T09:03:01;9.20;;;8.10;;
4638;SDS011;2332;38.646;-9.154;2023-06-04T09:05:27;9.33;;;8.33;;
4638;SDS011;2332;38.646;-9.154;2023-06-04T09:07:52;7.87;;;7.10;;
4638;SDS011;2332;38.646;-9.154;2023-06-04T09:10:19;9.10;;;7.47;;
4638;SDS011;2332;38.646;-9.154;2023-06-04T09:12:46;13.03;;;8.67;;
4638;SDS011;2332;38.646;-9.154;2023-06-04T09:15:12;8.57;;;7.60;;
4638;SDS011;2332;38.646;-9.154;2023-06-04T09:17:38;9.80;;;7.80;;
4638;SDS011;2332;38.646;-9.154;2023-06-04T09:20:03;9.40;;;8.33;;
4638;SDS011;2332;38.646;-9.154;2023-06-04T09:22:33;11.17;;;8.40;;
4638;SDS011;2332;38.646;-9.154;2023-06-04T09:24:59;8.70;;;7.70;;
4638;SDS011;2332;38.646;-9.154;2023-06-04T09:27:24;9.00;;;7.17;;
4638;SDS011;2332;38.646;-9.154;2023-06-04T09:32:26;9.90;;;8.47;;
4638;SDS011;2332;38.646;-9.154;2023-06-04T09:34:54;9.40;;;8.50;;
4638;SDS011;2332;38.646;-9.154;2023-06-04T09:37:21;15.90;;;8.67;;
4638;SDS011;2332;38.646;-9.154;2023-06-04T09:39:53;8.97;;;8.10;;
4638;SDS011;2332;38.646;-9.154;2023-06-04T09:42:19;12.87;;;8.13;;
4638;SDS011;2332;38.646;-9.154;2023-06-04T09:44:44;8.67;;;7.37;;
4638;SDS011;2332;38.646;-9.154;2023-06-04T09:47:10;7.93;;;7.20;;
4638;SDS011;2332;38.646;-9.154;2023-06-04T09:49:45;7.60;;;6.90;;
4638;SDS011;2332;38.646;-9.154;2023-06-04T09:52:11;9.60;;;8.13;;
4638;SDS011;2332;38.646;-9.154;2023-06-04T09:54:40;19.40;;;8.57;;
4638;SDS011;2332;38.646;-9.154;2023-06-04T09:57:18;10.83;;;8.33;;
4638;SDS011;2332;38.646;-9.154;2023-06-04T09:59:44;7.90;;;7.10;;
4638;SDS011;2332;38.646;-9.154;2023-06-04T10:02:11;11.53;;;7.60;;
4638;SDS011;2332;38.646;-9.154;2023-06-04T10:04:36;9.40;;;7.90;;
4638;SDS011;2332;38.646;-9.154;2023-06-04T10:07:04;10.00;;;8.07;;
4638;SDS011;2332;38.646;-9.154;2023-06-04T10:09:31;8.30;;;7.50;;
4638;SDS011;2332;38.646;-9.154;2023-06-04T10:11:58;10.37;;;8.70;;
4638;SDS011;2332;38.646;-9.154;2023-06-04T10:14:25;9.00;;;7.30;;
4638;SDS011;2332;38.646;-9.154;2023-06-04T10:16:52;8.63;;;7.60;;
4638;SDS011;2332;38.646;-9.154;2023-06-04T10:19:18;9.33;;;7.83;;
4638;SDS011;2332;38.646;-9.154;2023-06-04T10:21:44;12.80;;;7.60;;
4638;SDS011;2332;38.646;-9.154;2023-06-04T10:24:11;13.23;;;7.80;;
4638;SDS011;2332;38.646;-9.154;2023-06-04T10:26:37;8.03;;;7.27;;
4638;SDS011;2332;38.646;-9.154;2023-06-04T10:29:03;8.00;;;7.20;;
4638;SDS011;2332;38.646;-9.154;2023-06-04T10:31:31;8.87;;;6.90;;
4638;SDS011;2332;38.646;-9.154;2023-06-04T10:33:57;12.53;;;8.23;;
4638;SDS011;2332;38.646;-9.154;2023-06-04T10:36:22;12.13;;;7.40;;
4638;SDS011;2332;38.646;-9.154;2023-06-04T10:38:54;8.93;;;7.87;;
4638;SDS011;2332;38.646;-9.154;2023-06-04T10:41:20;9.30;;;7.53;;
4638;SDS011;2332;38.646;-9.154;2023-06-04T10:43:47;9.57;;;7.30;;
4638;SDS011;2332;38.646;-9.154;2023-06-04T10:46:15;11.33;;;8.43;;
4638;SDS011;2332;38.646;-9.154;2023-06-04T10:48:47;9.70;;;8.57;;
4638;SDS011;2332;38.646;-9.154;2023-06-04T10:51:13;9.27;;;7.27;;
4638;SDS011;2332;38.646;-9.154;2023-06-04T10:53:38;10.70;;;8.33;;
4638;SDS011;2332;38.646;-9.154;2023-06-04T10:56:04;8.93;;;8.00;;
4638;SDS011;2332;38.646;-9.154;2023-06-04T10:58:33;10.33;;;8.17;;
4638;SDS011;2332;38.646;-9.154;2023-06-04T11:00:58;9.80;;;7.40;;
4638;SDS011;2332;38.646;-9.154;2023-06-04T11:03:24;11.60;;;8.23;;
4638;SDS011;2332;38.646;-9.154;2023-06-04T11:05:59;11.83;;;7.37;;
4638;SDS011;2332;38.646;-9.154;2023-06-04T11:08:28;11.50;;;8.20;;
4638;SDS011;2332;38.646;-9.154;2023-06-04T11:10:54;9.23;;;8.33;;
4638;SDS011;2332;38.646;-9.154;2023-06-04T11:13:23;9.20;;;7.73;;
4638;SDS011;2332;38.646;-9.154;2023-06-04T11:15:49;8.73;;;7.87;;
4638;SDS011;2332;38.646;-9.154;2023-06-04T11:18:16;12.47;;;8.10;;
4638;SDS011;2332;38.646;-9.154;2023-06-04T11:20:41;8.97;;;8.17;;
4638;SDS011;2332;38.646;-9.154;2023-06-04T11:23:11;11.93;;;8.80;;
4638;SDS011;2332;38.646;-9.154;2023-06-04T11:25:36;8.90;;;8.00;;
4638;SDS011;2332;38.646;-9.154;2023-06-04T11:28:02;21.83;;;8.70;;
4638;SDS011;2332;38.646;-9.154;2023-06-04T11:30:27;9.63;;;8.53;;
4638;SDS011;2332;38.646;-9.154;2023-06-04T11:33:02;14.00;;;8.20;;
4638;SDS011;2332;38.646;-9.154;2023-06-04T11:35:28;9.83;;;8.00;;
4638;SDS011;2332;38.646;-9.154;2023-06-04T11:37:54;8.43;;;7.50;;
4638;SDS011;2332;38.646;-9.154;2023-06-04T11:40:20;13.77;;;9.20;;
4638;SDS011;2332;38.646;-9.154;2023-06-04T11:42:46;10.60;;;9.47;;
4638;SDS011;2332;38.646;-9.154;2023-06-04T11:45:12;9.43;;;8.23;;
4638;SDS011;2332;38.646;-9.154;2023-06-04T11:47:38;13.23;;;8.00;;
4638;SDS011;2332;38.646;-9.154;2023-06-04T11:50:04;9.10;;;8.20;;
4638;SDS011;2332;38.646;-9.154;2023-06-04T11:52:29;9.50;;;7.70;;
4638;SDS011;2332;38.646;-9.154;2023-06-04T11:54:55;12.43;;;8.57;;
4638;SDS011;2332;38.646;-9.154;2023-06-04T11:57:20;10.30;;;8.60;;
4638;SDS011;2332;38.646;-9.154;2023-06-04T11:59:46;12.60;;;8.93;;
4638;SDS011;2332;38.646;-9.154;2023-06-04T12:02:11;9.30;;;8.40;;
4638;SDS011;2332;38.646;-9.154;2023-06-04T12:04:37;9.97;;;8.13;;
4638;SDS011;2332;38.646;-9.154;2023-06-04T12:07:03;10.30;;;7.83;;
4638;SDS011;2332;38.646;-9.154;2023-06-04T12:09:33;11.93;;;8.50;;
4638;SDS011;2332;38.646;-9.154;2023-06-04T12:12:04;10.60;;;7.13;;
4638;SDS011;2332;38.646;-9.154;2023-06-04T12:14:30;14.83;;;8.53;;
4638;SDS011;2332;38.646;-9.154;2023-06-04T12:16:56;17.50;;;8.43;;
4638;SDS011;2332;38.646;-9.154;2023-06-04T12:19:21;8.60;;;7.80;;
4638;SDS011;2332;38.646;-9.154;2023-06-04T12:21:58;10.33;;;7.90;;
4638;SDS011;2332;38.646;-9.154;2023-06-04T12:24:23;12.87;;;8.90;;
4638;SDS011;2332;38.646;-9.154;2023-06-04T12:26:49;10.50;;;9.17;;
4638;SDS011;2332;38.646;-9.154;2023-06-04T12:29:14;16.37;;;9.93;;
4638;SDS011;2332;38.646;-9.154;2023-06-04T12:31:41;22.47;;;10.77;;
4638;SDS011;2332;38.646;-9.154;2023-06-04T12:34:06;19.77;;;10.13;;
4638;SDS011;2332;38.646;-9.154;2023-06-04T12:36:32;14.27;;;8.87;;
4638;SDS011;2332;38.646;-9.154;2023-06-04T12:39:03;13.03;;;8.90;;
4638;SDS011;2332;38.646;-9.154;2023-06-04T12:41:30;12.43;;;9.20;;
4638;SDS011;2332;38.646;-9.154;2023-06-04T12:43:55;10.07;;;9.03;;
4638;SDS011;2332;38.646;-9.154;2023-06-04T12:46:21;11.10;;;8.50;;
4638;SDS011;2332;38.646;-9.154;2023-06-04T12:48:47;12.80;;;9.40;;
4638;SDS011;2332;38.646;-9.154;2023-06-04T12:51:13;9.80;;;8.57;;
4638;SDS011;2332;38.646;-9.154;2023-06-04T12:53:39;12.33;;;9.40;;
4638;SDS011;2332;38.646;-9.154;2023-06-04T12:56:05;11.40;;;10.10;;
4638;SDS011;2332;38.646;-9.154;2023-06-04T12:58:30;16.07;;;12.20;;
4638;SDS011;2332;38.646;-9.154;2023-06-04T13:00:55;14.77;;;9.67;;
4638;SDS011;2332;38.646;-9.154;2023-06-04T13:03:21;11.10;;;9.20;;
4638;SDS011;2332;38.646;-9.154;2023-06-04T13:05:46;13.47;;;9.40;;
4638;SDS011;2332;38.646;-9.154;2023-06-04T13:08:12;13.57;;;9.43;;
4638;SDS011;2332;38.646;-9.154;2023-06-04T13:10:37;11.87;;;9.80;;
4638;SDS011;2332;38.646;-9.154;2023-06-04T13:13:02;13.27;;;10.00;;
4638;SDS011;2332;38.646;-9.154;2023-06-04T13:15:28;11.83;;;9.63;;
4638;SDS011;2332;38.646;-9.154;2023-06-04T13:17:54;10.30;;;9.23;;
4638;SDS011;2332;38.646;-9.154;2023-06-04T13:20:20;12.70;;;10.50;;
4638;SDS011;2332;38.646;-9.154;2023-06-04T13:22:45;10.60;;;8.57;;
4638;SDS011;2332;38.646;-9.154;2023-06-04T13:25:10;10.77;;;9.27;;
4638;SDS011;2332;38.646;-9.154;2023-06-04T13:27:36;13.43;;;8.67;;
4638;SDS011;2332;38.646;-9.154;2023-06-04T13:30:01;14.73;;;9.33;;
4638;SDS011;2332;38.646;-9.154;2023-06-04T13:32:26;10.93;;;9.37;;
4638;SDS011;2332;38.646;-9.154;2023-06-04T13:34:52;9.30;;;8.33;;
4638;SDS011;2332;38.646;-9.154;2023-06-04T13:37:17;9.83;;;8.83;;
4638;SDS011;2332;38.646;-9.154;2023-06-04T13:39:43;11.10;;;9.17;;
4638;SDS011;2332;38.646;-9.154;2023-06-04T13:42:08;11.30;;;8.87;;
4638;SDS011;2332;38.646;-9.154;2023-06-04T13:44:33;12.30;;;8.93;;
4638;SDS011;2332;38.646;-9.154;2023-06-04T13:46:59;9.07;;;7.50;;
4638;SDS011;2332;38.646;-9.154;2023-06-04T13:49:24;9.43;;;8.33;;
4638;SDS011;2332;38.646;-9.154;2023-06-04T13:51:50;10.33;;;8.60;;
4638;SDS011;2332;38.646;-9.154;2023-06-04T13:54:15;10.53;;;8.53;;
4638;SDS011;2332;38.646;-9.154;2023-06-04T13:56:41;14.13;;;8.47;;
4638;SDS011;2332;38.646;-9.154;2023-06-04T13:59:06;8.97;;;7.60;;
4638;SDS011;2332;38.646;-9.154;2023-06-04T14:01:32;11.53;;;8.30;;
4638;SDS011;2332;38.646;-9.154;2023-06-04T14:03:57;12.73;;;7.80;;
4638;SDS011;2332;38.646;-9.154;2023-06-04T14:06:23;9.33;;;8.27;;
4638;SDS011;2332;38.646;-9.154;2023-06-04T14:08:49;8.10;;;7.30;;
4638;SDS011;2332;38.646;-9.154;2023-06-04T14:11:14;9.53;;;6.60;;
4638;SDS011;2332;38.646;-9.154;2023-06-04T14:13:40;9.67;;;7.10;;
4638;SDS011;2332;38.646;-9.154;2023-06-04T14:16:06;9.87;;;7.30;;
4638;SDS011;2332;38.646;-9.154;2023-06-04T14:18:31;7.70;;;6.90;;
4638;SDS011;2332;38.646;-9.154;2023-06-04T14:20:57;8.83;;;6.50;;
4638;SDS011;2332;38.646;-9.154;2023-06-04T14:23:22;8.50;;;7.10;;
4638;SDS011;2332;38.646;-9.154;2023-06-04T14:25:47;7.50;;;6.70;;
4638;SDS011;2332;38.646;-9.154;2023-06-04T14:28:13;7.70;;;6.60;;
4638;SDS011;2332;38.646;-9.154;2023-06-04T14:30:38;7.60;;;6.80;;
4638;SDS011;2332;38.646;-9.154;2023-06-04T14:33:04;11.33;;;7.43;;
4638;SDS011;2332;38.646;-9.154;2023-06-04T14:35:29;7.47;;;6.77;;
4638;SDS011;2332;38.646;-9.154;2023-06-04T14:37:54;6.90;;;6.30;;
4638;SDS011;2332;38.646;-9.154;2023-06-04T14:40:20;6.87;;;6.27;;
4638;SDS011;2332;38.646;-9.154;2023-06-04T14:42:45;8.00;;;7.20;;
4638;SDS011;2332;38.646;-9.154;2023-06-04T14:45:11;8.30;;;6.63;;
4638;SDS011;2332;38.646;-9.154;2023-06-04T14:47:36;8.10;;;6.53;;
4638;SDS011;2332;38.646;-9.154;2023-06-04T14:50:01;7.13;;;6.53;;
4638;SDS011;2332;38.646;-9.154;2023-06-04T14:52:27;7.83;;;7.07;;